Time;durP1;ratioP1;P1;durP2;ratioP2;P2;SDS_P1;SDS_P2;PMS_P1;PMS_P2;Temp;Humidity;BMP_temperature;BMP_pressure;BME280_temperature;BME280_humidity;BME280_pressure;Samples;Min_cycle;Max_cycle;Signal;HPM_P1;HPM_P2
2022/09/23 00:00:39;;;;;;;4.63;4.13;;;;;;;11.27;94.82;94731.38;5036322;28;20217;-62
2022/09/23 00:03:05;;;;;;;4.40;4.00;;;;;;;11.23;94.90;94724.16;5054070;28;20199;-61
2022/09/23 00:05:30;;;;;;;6.20;4.17;;;;;;;11.03;95.95;94702.94;5054202;28;20608;-62
2022/09/23 00:07:56;;;;;;;4.10;3.80;;;;;;;11.07;96.37;94704.28;5054133;28;20263;-61
2022/09/23 00:10:23;;;;;;;4.30;3.90;;;;;;;11.07;95.59;94709.38;5054200;28;20217;-61
2022/09/23 00:12:49;;;;;;;5.37;3.70;;;;;;;11.10;95.05;94709.13;5054055;28;20205;-62
2022/09/23 00:15:15;;;;;;;4.80;4.40;;;;;;;11.21;94.57;94711.53;5054016;28;20226;-61
2022/09/23 00:17:41;;;;;;;5.73;4.13;;;;;;;10.92;95.76;94701.34;5053982;28;20636;-60
2022/09/23 00:20:08;;;;;;;4.53;4.03;;;;;;;10.88;96.64;94686.47;5035928;28;20291;-60
2022/09/23 00:22:35;;;;;;;5.33;4.27;;;;;;;10.99;96.43;94701.59;5053730;28;20743;-60
2022/09/23 00:25:02;;;;;;;4.30;3.90;;;;;;;11.17;95.27;94720.38;5054067;28;20226;-60
2022/09/23 00:27:28;;;;;;;4.83;4.23;;;;;;;11.11;95.16;94709.94;5053643;28;20709;-61
2022/09/23 00:29:54;;;;;;;5.10;4.47;;;;;;;10.95;92.03;94743.47;5053999;28;20773;-60
2022/09/23 00:32:19;;;;;;;4.60;4.20;;;;;;;10.77;93.72;94728.06;5035853;28;20205;-60
2022/09/23 00:34:46;;;;;;;5.53;4.80;;;;;;;10.69;92.64;94732.16;5053886;28;20271;-61
2022/09/23 00:37:13;;;;;;;8.27;4.63;;;;;;;10.74;90.89;94760.56;5035752;28;20193;-61
2022/09/23 00:39:38;;;;;;;8.27;4.67;;;;;;;10.50;91.42;94734.66;5053577;28;20221;-60
2022/09/23 00:42:05;;;;;;;5.13;4.63;;;;;;;10.33;92.52;94719.97;5035829;28;20193;-60
2022/09/23 00:44:45;;;;;;;6.80;5.00;;;;;;;10.27;92.53;94716.22;5053951;28;20210;-60
2022/09/23 00:47:31;;;;;;;6.97;4.80;;;;;;;10.09;93.92;94700.72;5053556;28;20186;-60
2022/09/23 00:50:11;;;;;;;8.67;5.57;;;;;;;10.14;93.02;94710.50;5053808;28;20289;-60
2022/09/23 00:52:36;;;;;;;5.23;4.47;;;;;;;10.04;93.03;94714.72;5053474;28;20205;-61
2022/09/23 00:55:26;;;;;;;5.30;4.60;;;;;;;9.86;94.67;94686.53;5053235;28;20220;-60
2022/09/23 00:57:55;;;;;;;4.73;4.13;;;;;;;9.67;95.87;94666.13;5053017;28;20256;-60
2022/09/23 01:00:22;;;;;;;4.27;3.87;;;;;;;9.89;93.23;94709.16;5061141;22;20306;-61
2022/09/23 01:02:47;;;;;;;4.57;3.93;;;;;;;9.78;94.57;94696.53;5035352;28;20193;-61
2022/09/23 01:05:13;;;;;;;6.60;4.07;;;;;;;10.00;93.01;94718.44;5053150;28;20209;-60
2022/09/23 01:07:40;;;;;;;4.67;3.83;;;;;;;9.97;91.29;94742.34;5053221;28;20247;-61
2022/09/23 01:10:06;;;;;;;4.77;4.13;;;;;;;9.83;92.56;94719.81;5052390;28;20213;-60
2022/09/23 01:13:04;;;;;;;6.73;3.97;;;;;;;9.51;94.35;94700.47;5052972;28;20665;-60
2022/09/23 01:15:47;;;;;;;4.40;4.00;;;;;;;9.59;92.16;94724.31;5053097;28;20217;-60
2022/09/23 01:18:19;;;;;;;5.53;3.87;;;;;;;9.07;96.83;94651.53;5053088;28;20197;-60
2022/09/23 01:21:09;;;;;;;4.50;3.87;;;;;;;9.40;95.29;94693.72;5060436;22;20222;-58
2022/09/23 01:23:53;;;;;;;4.30;3.83;;;;;;;9.30;93.99;94690.28;5052951;28;20216;-62
2022/09/23 01:26:51;;;;;;;3.73;3.43;;;;;;;9.21;95.54;94681.66;5052857;28;20189;-62
2022/09/23 01:29:46;;;;;;;4.00;3.50;;;;;;;9.42;93.52;94704.53;5034608;28;20247;-61
2022/09/23 01:32:20;;;;;;;5.07;4.07;;;;;;;9.35;93.63;94702.63;5052376;28;20897;-60
2022/09/23 01:35:07;;;;;;;3.87;3.47;;;;;;;9.23;94.75;94691.72;5052661;28;20242;-62
2022/09/23 01:37:44;;;;;;;5.83;3.93;;;;;;;9.26;94.22;94701.59;5034576;28;20189;-62
2022/09/23 01:40:25;;;;;;;3.97;3.63;;;;;;;9.01;96.91;94666.41;5052690;28;20209;-62
2022/09/23 01:43:03;;;;;;;4.43;4.03;;;;;;;9.09;97.27;94666.63;5052720;28;20247;-60
2022/09/23 01:45:42;;;;;;;5.07;3.50;;;;;;;9.15;95.52;94686.44;5052515;28;20223;-62
2022/09/23 01:48:24;;;;;;;4.27;3.87;;;;;;;8.98;96.58;94674.28;5052680;28;20201;-61
2022/09/23 01:50:59;;;;;;;4.17;3.77;;;;;;;8.92;98.57;94645.13;5034555;28;20216;-62
2022/09/23 01:53:24;;;;;;;4.37;3.93;;;;;;;9.13;97.54;94673.88;5052451;28;20666;-60
2022/09/23 01:55:57;;;;;;;5.10;3.60;;;;;;;9.25;95.93;94685.56;5052586;28;20273;-60
2022/09/23 01:58:23;;;;;;;4.57;3.80;;;;;;;9.36;96.17;94689.81;5052322;28;20190;-60
2022/09/23 02:01:00;;;;;;;5.43;3.37;;;;;;;9.29;96.76;94673.47;5034399;28;20219;-61
2022/09/23 02:03:32;;;;;;;4.10;3.70;;;;;;;9.25;97.25;94667.03;5052298;28;20197;-62
2022/09/23 02:06:06;;;;;;;4.20;3.73;;;;;;;9.26;97.17;94666.09;5052364;28;20189;-62
2022/09/23 02:08:42;;;;;;;4.17;3.77;;;;;;;9.22;98.25;94652.06;5052315;28;20200;-62
2022/09/23 02:11:10;;;;;;;4.23;3.73;;;;;;;9.31;97.88;94662.25;5052148;28;20225;-60
2022/09/23 02:13:47;;;;;;;6.03;4.73;;;;;;;9.21;99.68;94651.25;5034397;28;20209;-61
2022/09/23 02:16:17;;;;;;;6.10;4.00;;;;;;;9.22;100.00;94636.84;5052089;28;20280;-60
2022/09/23 02:18:55;;;;;;;4.40;3.97;;;;;;;9.24;100.00;94640.06;5034186;28;20278;-60
2022/09/23 02:21:26;;;;;;;5.80;4.50;;;;;;;9.50;98.49;94658.25;5051119;28;20622;-60
2022/09/23 02:23:59;;;;;;;5.20;4.30;;;;;;;9.65;97.83;94668.00;5034337;28;20217;-62
2022/09/23 02:26:32;;;;;;;8.20;4.77;;;;;;;9.66;97.81;94654.38;5051936;28;20231;-62
2022/09/23 02:29:17;;;;;;;10.83;4.83;;;;;;;9.82;96.67;94677.56;5051793;28;20213;-61
2022/09/23 02:32:15;;;;;;;6.63;5.30;;;;;;;9.71;97.41;94664.16;5033956;28;20272;-62
2022/09/23 02:34:54;;;;;;;5.97;4.97;;;;;;;9.65;97.08;94675.59;5047628;28;20233;-61
2022/09/23 02:37:19;;;;;;;6.83;4.93;;;;;;;9.42;97.34;94673.28;5051875;28;20640;-60
2022/09/23 02:39:55;;;;;;;5.30;4.10;;;;;;;9.03;97.85;94654.44;5052252;28;20224;-60
2022/09/23 02:42:29;;;;;;;7.07;4.20;;;;;;;8.68;100.00;94629.31;5033757;28;20185;-61
2022/09/23 02:44:55;;;;;;;5.40;4.37;;;;;;;8.65;100.00;94628.72;5034090;28;20279;-61
2022/09/23 02:47:26;;;;;;;5.30;4.17;;;;;;;8.98;98.80;94669.19;5051878;28;20193;-62
2022/09/23 02:49:52;;;;;;;7.00;5.07;;;;;;;8.79;100.00;94649.53;5051910;28;20217;-62
2022/09/23 02:52:17;;;;;;;6.33;5.07;;;;;;;8.66;100.00;94648.91;5051460;28;20244;-60
2022/09/23 02:54:43;;;;;;;4.53;4.13;;;;;;;8.83;99.17;94666.13;5051403;28;20292;-60
2022/09/23 02:57:09;;;;;;;6.70;4.60;;;;;;;8.78;98.93;94665.69;5051744;28;20191;-61
2022/09/23 02:59:35;;;;;;;5.60;4.57;;;;;;;8.62;100.00;94642.47;5051753;28;20220;-62
2022/09/23 03:02:48;;;;;;;7.77;4.20;;;;;;;8.80;100.00;94668.09;5051380;28;20657;-62
2022/09/23 03:05:33;;;;;;;5.30;4.30;;;;;;;8.83;99.35;94673.72;5032739;28;20224;-62
2022/09/23 03:08:18;;;;;;;5.90;4.77;;;;;;;8.58;100.00;94640.28;5032344;28;20193;-60
2022/09/23 03:11:04;;;;;;;7.53;5.77;;;;;;;8.55;100.00;94626.09;5051286;28;20243;-61
2022/09/23 03:14:02;;;;;;;7.60;6.23;;;;;;;8.81;99.87;94667.16;5051227;28;20213;-61
2022/09/23 03:16:41;;;;;;;6.80;5.20;;;;;;;8.59;100.00;94645.22;5051341;28;20247;-60
2022/09/23 03:19:25;;;;;;;7.87;5.40;;;;;;;8.80;100.00;94671.44;5051017;28;20221;-60
2022/09/23 03:22:05;;;;;;;9.13;5.13;;;;;;;8.83;99.17;94680.50;5051015;28;20186;-61
2022/09/23 03:24:33;;;;;;;5.90;5.10;;;;;;;8.85;98.71;94691.34;5051542;28;20288;-61
2022/09/23 03:27:10;;;;;;;6.83;5.00;;;;;;;8.68;99.88;94667.31;5033089;28;20286;-59
2022/09/23 03:29:36;;;;;;;6.67;4.60;;;;;;;8.78;97.75;94693.56;5051338;28;20205;-59
2022/09/23 03:32:06;;;;;;;5.87;5.27;;;;;;;8.60;98.44;94682.31;5050718;28;20256;-61
2022/09/23 03:34:34;;;;;;;6.80;5.00;;;;;;;8.57;98.98;94679.19;5051125;28;20214;-61
2022/09/23 03:37:10;;;;;;;6.90;4.80;;;;;;;8.36;100.00;94649.50;5050958;28;20748;-61
2022/09/23 03:39:43;;;;;;;5.27;4.53;;;;;;;8.39;100.00;94640.88;5032969;28;20213;-61
2022/09/23 03:42:15;;;;;;;8.70;4.93;;;;;;;8.57;99.98;94666.50;5033015;28;20288;-61
2022/09/23 03:44:45;;;;;;;6.87;4.80;;;;;;;8.60;99.96;94673.91;5051079;28;20219;-62
2022/09/23 03:47:12;;;;;;;5.27;4.70;;;;;;;8.61;99.73;94670.41;5050632;28;20247;-62
2022/09/23 03:49:39;;;;;;;8.43;5.90;;;;;;;8.44;100.00;94634.53;5050987;28;20760;-62
2022/09/23 03:52:05;;;;;;;7.53;5.37;;;;;;;8.29;100.00;94634.91;5050561;28;20181;-62
2022/09/23 03:54:32;;;;;;;6.10;4.97;;;;;;;8.39;100.00;94645.94;5050946;28;20209;-61
2022/09/23 03:56:59;;;;;;;11.60;6.30;;;;;;;8.15;100.00;94619.91;5050785;28;20288;-59
2022/09/23 03:59:25;;;;;;;8.37;5.80;;;;;;;8.11;100.00;94626.94;5050652;28;20243;-60
2022/09/23 04:01:52;;;;;;;8.90;6.60;;;;;;;7.88;100.00;94643.03;5050575;28;20231;-61
2022/09/23 04:04:17;;;;;;;6.87;5.23;;;;;;;8.04;100.00;94651.09;5032649;28;20231;-61
2022/09/23 04:06:43;;;;;;;6.37;5.27;;;;;;;7.93;100.00;94652.81;5050550;28;20189;-62
2022/09/23 04:09:09;;;;;;;7.23;5.60;;;;;;;8.18;100.00;94668.59;5050761;28;20547;-62
2022/09/23 04:11:34;;;;;;;6.07;4.93;;;;;;;8.38;100.00;94695.78;5050505;28;20193;-62
2022/09/23 04:14:00;;;;;;;6.27;5.20;;;;;;;8.23;100.00;94679.19;5050584;28;20242;-62
2022/09/23 04:16:26;;;;;;;5.57;4.67;;;;;;;8.44;100.00;94715.56;5050423;28;20603;-60
2022/09/23 04:18:52;;;;;;;7.30;4.60;;;;;;;8.16;100.00;94725.34;5050615;28;20307;-62
2022/09/23 04:21:17;;;;;;;5.37;4.47;;;;;;;7.65;100.00;94664.19;5050403;28;20281;-62
2022/09/23 04:23:42;;;;;;;7.83;5.13;;;;;;;7.60;100.00;94668.75;5050520;28;20216;-62
2022/09/23 04:26:08;;;;;;;8.23;4.97;;;;;;;7.69;100.00;94683.28;5050225;28;20193;-62
2022/09/23 04:28:34;;;;;;;5.80;4.73;;;;;;;7.58;100.00;94678.19;5050338;28;20197;-62
2022/09/23 04:31:07;;;;;;;6.63;5.27;;;;;;;7.78;100.00;94677.53;5032513;28;20193;-61
2022/09/23 04:33:33;;;;;;;4.97;4.47;;;;;;;7.59;100.00;94682.34;5050248;28;20273;-62
2022/09/23 04:35:59;;;;;;;5.30;4.70;;;;;;;7.77;100.00;94686.06;5032596;28;20658;-61
2022/09/23 04:38:25;;;;;;;5.47;4.03;;;;;;;8.11;100.00;94702.09;5050159;28;20190;-59
2022/09/23 04:40:50;;;;;;;6.37;4.20;;;;;;;8.17;100.00;94732.00;5032322;28;20224;-62
2022/09/23 04:43:16;;;;;;;8.27;5.33;;;;;;;7.88;100.00;94691.13;5050102;28;20224;-61
2022/09/23 04:45:43;;;;;;;7.33;5.47;;;;;;;7.73;100.00;94692.25;5034506;28;20204;-60
2022/09/23 04:48:12;;;;;;;5.27;4.63;;;;;;;7.57;100.00;94696.81;5053365;28;20718;-63
2022/09/23 04:50:38;;;;;;;6.47;5.27;;;;;;;7.46;100.00;94711.94;5053003;28;20239;-62
2022/09/23 04:53:05;;;;;;;6.67;5.20;;;;;;;7.88;100.00;94718.94;5053315;28;20212;-62
2022/09/23 04:55:30;;;;;;;11.73;5.40;;;;;;;7.76;100.00;94722.38;5053388;28;20269;-62
2022/09/23 04:57:56;;;;;;;7.37;4.60;;;;;;;8.09;100.00;94754.56;5053196;28;20200;-60
2022/09/23 05:00:23;;;;;;;7.73;4.60;;;;;;;8.26;100.00;94761.75;5035309;28;20216;-62
2022/09/23 05:02:49;;;;;;;5.30;4.33;;;;;;;8.26;100.00;94765.06;5035366;28;20562;-62
2022/09/23 05:05:20;;;;;;;6.27;4.67;;;;;;;8.28;100.00;94773.38;5053137;28;20217;-59
2022/09/23 05:07:47;;;;;;;6.73;4.37;;;;;;;8.28;100.00;94757.38;5035580;28;20193;-60
2022/09/23 05:10:13;;;;;;;7.37;5.03;;;;;;;8.33;100.00;94745.97;5052875;28;20684;-62
2022/09/23 05:12:38;;;;;;;8.70;5.53;;;;;;;8.70;100.00;94740.69;5053101;28;20279;-61
2022/09/23 05:15:04;;;;;;;7.33;5.60;;;;;;;8.57;100.00;94748.41;5053294;28;20252;-61
2022/09/23 05:17:30;;;;;;;5.93;5.10;;;;;;;8.62;100.00;94748.06;5052668;28;20189;-60
2022/09/23 05:19:56;;;;;;;10.13;6.53;;;;;;;8.61;100.00;94736.31;5053318;28;20212;-61
2022/09/23 05:22:22;;;;;;;9.73;6.63;;;;;;;8.59;100.00;94722.94;5035344;28;20259;-61
2022/09/23 05:24:47;;;;;;;10.07;7.63;;;;;;;8.56;100.00;94721.47;5053016;28;20217;-60
2022/09/23 05:27:13;;;;;;;9.37;7.20;;;;;;;8.55;100.00;94724.09;5034511;28;20573;-61
2022/09/23 05:29:39;;;;;;;11.27;7.83;;;;;;;8.59;100.00;94728.00;5050763;28;20221;-63
2022/09/23 05:32:04;;;;;;;10.70;7.53;;;;;;;8.51;100.00;94730.31;5051270;28;20228;-63
2022/09/23 05:34:31;;;;;;;16.07;8.63;;;;;;;8.56;100.00;94729.06;5032607;28;20737;-60
2022/09/23 05:36:57;;;;;;;14.67;8.30;;;;;;;8.65;100.00;94735.16;5050337;28;20185;-62
2022/09/23 05:39:22;;;;;;;12.80;8.60;;;;;;;8.53;100.00;94734.34;5051165;28;20223;-61
2022/09/23 05:41:48;;;;;;;10.07;8.50;;;;;;;8.50;100.00;94732.06;5051851;28;20655;-61
2022/09/23 05:44:13;;;;;;;10.47;8.10;;;;;;;8.50;100.00;94738.84;5034805;28;20209;-60
2022/09/23 05:46:38;;;;;;;9.97;8.10;;;;;;;8.71;100.00;94729.59;5052599;28;20685;-61
2022/09/23 05:49:05;;;;;;;8.57;6.93;;;;;;;8.64;100.00;94731.81;5052551;28;20687;-61
2022/09/23 05:51:32;;;;;;;6.03;5.37;;;;;;;8.50;100.00;94739.66;5052452;28;20181;-62
2022/09/23 05:53:59;;;;;;;6.37;5.30;;;;;;;8.46;100.00;94731.47;5052346;28;20225;-61
2022/09/23 05:56:27;;;;;;;5.80;5.20;;;;;;;8.62;100.00;94735.41;5052127;28;20189;-60
2022/09/23 05:58:54;;;;;;;6.43;5.63;;;;;;;8.65;100.00;94735.97;5051886;28;20225;-60
2022/09/23 06:01:26;;;;;;;5.70;5.20;;;;;;;8.64;100.00;94736.91;5034056;28;20185;-61
2022/09/23 06:03:53;;;;;;;6.87;4.50;;;;;;;8.59;100.00;94741.50;5050289;28;20213;-63
2022/09/23 06:06:24;;;;;;;8.33;5.60;;;;;;;8.76;100.00;94735.16;5050136;28;20246;-62
2022/09/23 06:08:58;;;;;;;5.60;5.10;;;;;;;8.82;100.00;94742.28;5052470;28;20254;-62
2022/09/23 06:11:25;;;;;;;5.60;4.50;;;;;;;8.77;100.00;94744.34;5052410;28;20190;-61
2022/09/23 06:13:58;;;;;;;5.30;4.80;;;;;;;8.82;100.00;94734.69;5052255;28;20658;-62
2022/09/23 06:16:24;;;;;;;5.00;4.47;;;;;;;8.88;100.00;94760.38;5052356;28;20190;-61
2022/09/23 06:18:49;;;;;;;7.87;5.70;;;;;;;9.19;100.00;94719.03;5052302;28;20220;-61
2022/09/23 06:21:16;;;;;;;6.77;4.70;;;;;;;9.13;100.00;94762.63;5034189;28;20209;-60
2022/09/23 06:23:43;;;;;;;6.77;4.70;;;;;;;9.20;100.00;94745.22;5052040;28;20228;-62
2022/09/23 06:26:11;;;;;;;4.87;4.37;;;;;;;9.14;100.00;94776.13;5051669;28;20198;-63
2022/09/23 06:28:40;;;;;;;5.00;4.50;;;;;;;9.20;100.00;94775.63;5050671;28;20628;-60
2022/09/23 06:31:15;;;;;;;6.53;4.60;;;;;;;9.29;100.00;94763.03;5032385;28;20239;-62
2022/09/23 06:33:43;;;;;;;4.77;4.27;;;;;;;9.37;100.00;94776.88;5051845;28;20228;-61
2022/09/23 06:36:10;;;;;;;7.23;5.30;;;;;;;9.15;100.00;94783.59;5052031;28;20185;-62
2022/09/23 06:38:40;;;;;;;5.07;4.13;;;;;;;9.06;100.00;94768.28;5051697;28;20537;-62
2022/09/23 06:41:06;;;;;;;6.37;4.33;;;;;;;8.92;100.00;94740.66;5051868;28;20659;-62
2022/09/23 06:43:31;;;;;;;5.13;4.63;;;;;;;8.99;100.00;94729.91;5051866;28;20658;-62
2022/09/23 06:46:02;;;;;;;7.27;5.10;;;;;;;9.27;100.00;94736.22;5051666;28;20193;-61
2022/09/23 06:48:28;;;;;;;5.57;5.00;;;;;;;9.29;100.00;94772.41;5051732;28;20189;-62
2022/09/23 06:50:58;;;;;;;5.93;5.33;;;;;;;9.31;100.00;94778.94;5051604;28;20201;-63
2022/09/23 06:53:23;;;;;;;6.13;5.53;;;;;;;9.41;100.00;94773.97;5051475;28;20267;-61
2022/09/23 06:56:04;;;;;;;5.47;4.97;;;;;;;9.48;100.00;94772.56;5051193;28;20186;-61
2022/09/23 06:58:31;;;;;;;6.93;4.70;;;;;;;9.37;100.00;94803.06;5050089;28;20247;-62
2022/09/23 07:01:08;;;;;;;5.13;4.63;;;;;;;9.35;100.00;94776.19;5049646;28;20190;-62
2022/09/23 07:03:35;;;;;;;6.03;4.53;;;;;;;9.48;100.00;94807.28;5031681;28;20686;-63
2022/09/23 07:06:01;;;;;;;5.47;4.37;;;;;;;9.43;100.00;94792.44;5051274;28;20247;-62
2022/09/23 07:08:28;;;;;;;6.33;4.83;;;;;;;9.62;100.00;94795.13;5050581;28;20190;-62
2022/09/23 07:10:56;;;;;;;5.20;4.70;;;;;;;9.99;100.00;94826.84;5051378;28;20253;-62
2022/09/23 07:13:23;;;;;;;5.10;4.57;;;;;;;10.03;100.00;94835.84;5051105;28;20213;-62
2022/09/23 07:15:52;;;;;;;5.70;4.87;;;;;;;9.73;100.00;94825.56;5050923;28;20200;-62
2022/09/23 07:18:19;;;;;;;6.30;5.70;;;;;;;9.78;100.00;94810.75;5033432;28;20189;-61
2022/09/23 07:20:45;;;;;;;5.20;4.70;;;;;;;9.79;100.00;94814.09;5051095;28;20621;-61
2022/09/23 07:23:11;;;;;;;8.10;4.70;;;;;;;9.92;100.00;94818.09;5051121;28;20196;-62
2022/09/23 07:25:37;;;;;;;6.63;5.13;;;;;;;10.06;100.00;94819.53;5050976;28;20220;-63
2022/09/23 07:28:02;;;;;;;5.30;4.67;;;;;;;10.17;99.46;94839.03;5051072;28;20308;-63
2022/09/23 07:30:27;;;;;;;4.53;4.07;;;;;;;10.13;98.78;94859.59;5050890;28;20209;-64
2022/09/23 07:32:53;;;;;;;6.40;4.60;;;;;;;9.98;98.59;94855.69;5050974;28;20602;-63
2022/09/23 07:35:18;;;;;;;6.37;4.30;;;;;;;10.05;99.83;94848.41;5033099;28;20733;-62
2022/09/23 07:37:44;;;;;;;8.63;5.47;;;;;;;9.95;99.65;94842.44;5050838;28;20721;-61
2022/09/23 07:40:10;;;;;;;5.47;4.63;;;;;;;9.96;100.00;94841.50;5051034;28;20291;-62
2022/09/23 07:42:39;;;;;;;5.30;4.07;;;;;;;10.05;99.96;94836.50;5050816;28;20671;-62
2022/09/23 07:45:07;;;;;;;5.73;4.17;;;;;;;10.17;99.78;94849.19;5050966;28;20209;-62
2022/09/23 07:47:34;;;;;;;5.80;4.93;;;;;;;10.44;98.23;94857.13;5050817;28;20247;-62
2022/09/23 07:49:59;;;;;;;6.10;4.17;;;;;;;10.55;97.49;94862.16;5050685;28;20296;-62
2022/09/23 07:52:25;;;;;;;4.80;4.27;;;;;;;10.66;96.43;94879.88;5050781;28;20295;-63
2022/09/23 07:54:51;;;;;;;4.67;4.10;;;;;;;10.94;96.82;94871.59;5050738;28;20209;-62
2022/09/23 07:57:17;;;;;;;6.43;4.67;;;;;;;11.12;96.07;94872.63;5032355;28;20185;-64
2022/09/23 07:59:42;;;;;;;6.47;5.47;;;;;;;11.19;93.49;94903.47;5031565;28;20221;-63
2022/09/23 08:02:09;;;;;;;6.97;5.43;;;;;;;11.19;92.76;94911.09;5030499;28;20199;-62
2022/09/23 08:04:35;;;;;;;5.93;4.80;;;;;;;11.37;92.69;94907.00;5049355;28;20236;-63
2022/09/23 08:07:03;;;;;;;6.93;4.67;;;;;;;11.28;91.33;94936.56;5050447;28;20243;-63
2022/09/23 08:09:40;;;;;;;5.70;5.00;;;;;;;11.21;90.70;94948.19;5050473;28;20213;-63
2022/09/23 08:12:11;;;;;;;8.07;4.67;;;;;;;11.23;89.62;94948.84;5050323;28;20213;-62
2022/09/23 08:14:37;;;;;;;6.93;5.30;;;;;;;11.26;88.95;94961.34;5050711;28;20271;-64
2022/09/23 08:17:04;;;;;;;8.03;4.40;;;;;;;11.45;88.14;94945.38;5032612;28;20189;-63
2022/09/23 08:19:29;;;;;;;4.80;3.80;;;;;;;11.64;88.60;94938.59;5051482;28;20213;-64
2022/09/23 08:21:56;;;;;;;5.33;4.20;;;;;;;11.94;89.10;94929.34;5036197;28;20622;-62
2022/09/23 08:24:23;;;;;;;8.27;4.03;;;;;;;11.97;85.60;94977.47;5035934;28;20241;-62
2022/09/23 08:26:52;;;;;;;5.17;4.17;;;;;;;12.12;83.94;95001.66;5036209;28;20186;-64
2022/09/23 08:29:19;;;;;;;4.17;3.77;;;;;;;11.80;84.26;94972.06;5035993;28;20292;-62
2022/09/23 08:31:44;;;;;;;5.43;4.40;;;;;;;11.96;85.42;94945.28;5053706;28;20641;-63
2022/09/23 08:34:10;;;;;;;4.83;4.33;;;;;;;12.18;83.04;94988.38;5053587;28;20274;-62
2022/09/23 08:36:36;;;;;;;5.77;4.70;;;;;;;12.43;83.43;94972.56;5053634;28;20539;-62
2022/09/23 08:39:03;;;;;;;4.27;3.13;;;;;;;12.43;79.46;95031.22;5053588;28;20213;-62
2022/09/23 08:41:53;;;;;;;3.77;3.47;;;;;;;12.51;79.17;95033.91;5053577;28;20189;-62
2022/09/23 08:44:33;;;;;;;3.80;3.40;;;;;;;12.78;78.57;95033.28;5053365;28;20221;-63
2022/09/23 08:46:59;;;;;;;4.17;3.57;;;;;;;13.12;77.97;95048.09;5053601;28;20196;-63
2022/09/23 08:49:29;;;;;;;3.60;3.30;;;;;;;13.58;77.81;95043.97;5053603;28;20582;-63
2022/09/23 08:51:57;;;;;;;6.37;3.00;;;;;;;13.60;72.94;95144.25;5053578;28;20315;-63
2022/09/23 08:54:30;;;;;;;6.23;3.10;;;;;;;13.48;73.86;95082.31;5053060;28;20312;-64
2022/09/23 08:56:58;;;;;;;3.27;2.97;;;;;;;13.59;72.90;95094.94;5053341;28;20208;-64
2022/09/23 08:59:40;;;;;;;5.13;3.47;;;;;;;13.91;73.31;95076.69;5034894;28;20221;-61
2022/09/23 09:02:17;;;;;;;3.33;3.03;;;;;;;14.18;71.46;95105.66;5051299;28;20191;-63
2022/09/23 09:04:46;;;;;;;3.67;2.87;;;;;;;14.01;70.31;95100.47;5053110;28;20213;-62
2022/09/23 09:07:18;;;;;;;3.37;2.90;;;;;;;14.27;71.28;95081.00;5053311;28;20188;-61
2022/09/23 09:10:02;;;;;;;2.93;2.63;;;;;;;14.60;71.15;95083.03;5035543;28;20209;-61
2022/09/23 09:12:42;;;;;;;3.45;2.70;;;;;;;15.13;68.79;95134.25;5053275;28;20754;-61
2022/09/23 09:15:18;;;;;;;2.90;2.70;;;;;;;14.80;65.17;95204.81;5053009;28;20351;-61
2022/09/23 09:17:50;;;;;;;3.00;2.70;;;;;;;15.28;66.38;95160.19;5065068;22;20177;-61
2022/09/23 09:20:22;;;;;;;2.80;2.60;;;;;;;15.21;64.89;95183.00;5053097;28;20699;-61
2022/09/23 09:23:02;;;;;;;2.67;2.47;;;;;;;14.65;63.91;95192.59;5053026;28;20795;-61
2022/09/23 09:25:48;;;;;;;2.40;2.20;;;;;;;14.60;62.70;95223.75;5052728;28;20698;-60
2022/09/23 09:28:17;;;;;;;2.58;2.38;;;;;;;14.56;63.57;95190.91;5052640;28;20288;-61
2022/09/23 09:30:45;;;;;;;2.70;2.50;;;;;;;14.89;66.13;95114.34;5050873;28;20189;-61
2022/09/23 09:33:17;;;;;;;2.90;2.70;;;;;;;15.35;64.75;95145.84;5052335;28;20275;-62
2022/09/23 09:36:12;;;;;;;2.28;2.15;;;;;;;15.80;61.52;95226.84;5035003;28;20259;-61
2022/09/23 09:38:37;;;;;;;3.28;2.20;;;;;;;15.96;59.89;95247.50;5035335;28;20257;-62
2022/09/23 09:41:23;;;;;;;2.85;2.65;;;;;;;16.32;60.65;95226.94;5052884;28;20228;-60
2022/09/23 09:43:55;;;;;;;2.60;2.40;;;;;;;15.85;59.36;95240.06;5052580;28;20278;-60
2022/09/23 09:46:50;;;;;;;2.45;2.25;;;;;;;15.49;60.77;95194.88;5034730;28;20261;-61
2022/09/23 09:49:29;;;;;;;2.80;2.50;;;;;;;15.05;61.63;95162.34;5052440;28;20358;-61
2022/09/23 09:52:17;;;;;;;3.25;2.75;;;;;;;14.79;61.98;95153.75;5034765;28;20295;-63
2022/09/23 09:54:43;;;;;;;3.33;2.00;;;;;;;15.46;60.85;95192.59;5052675;28;20213;-61
2022/09/23 09:57:30;;;;;;;2.70;2.47;;;;;;;15.93;59.57;95206.78;5052359;28;20197;-62
2022/09/23 09:59:57;;;;;;;3.03;2.20;;;;;;;16.17;59.17;95215.59;5052643;28;20201;-61
2022/09/23 10:02:35;;;;;;;2.30;2.10;;;;;;;16.16;55.03;95335.34;5052540;28;20252;-63
2022/09/23 10:05:04;;;;;;;1.98;1.77;;;;;;;16.40;56.26;95281.66;5052438;28;20201;-63
2022/09/23 10:07:32;;;;;;;1.77;1.65;;;;;;;16.78;55.23;95307.00;5034703;28;20279;-61
2022/09/23 10:10:19;;;;;;;3.38;2.15;;;;;;;16.58;55.10;95295.31;5052242;28;20713;-61
2022/09/23 10:12:47;;;;;;;1.70;1.60;;;;;;;16.51;54.70;95308.88;5034256;28;20229;-62
2022/09/23 10:15:31;;;;;;;1.80;1.70;;;;;;;15.98;53.09;95327.66;5052188;28;20212;-61
2022/09/23 10:18:00;;;;;;;2.08;1.50;;;;;;;16.24;52.95;95329.50;5052345;28;20217;-62
2022/09/23 10:20:36;;;;;;;1.42;1.33;;;;;;;16.20;52.52;95320.50;5050327;28;20207;-61
2022/09/23 10:23:08;;;;;;;3.08;1.60;;;;;;;16.71;51.84;95336.81;5050119;28;20181;-63
2022/09/23 10:25:35;;;;;;;3.97;1.63;;;;;;;17.25;52.09;95338.22;5051878;28;20601;-61
2022/09/23 10:28:42;;;;;;;2.03;1.88;;;;;;;16.82;50.33;95358.06;5052016;28;20327;-62
2022/09/23 10:31:12;;;;;;;2.30;2.10;;;;;;;17.09;51.44;95311.69;5050159;28;20233;-60
2022/09/23 10:33:47;;;;;;;2.67;1.88;;;;;;;17.15;50.06;95358.09;5051965;28;20252;-62
2022/09/23 10:36:14;;;;;;;1.85;1.75;;;;;;;17.42;49.86;95346.81;5052002;28;20264;-61
2022/09/23 10:38:40;;;;;;;4.93;2.13;;;;;;;17.10;49.85;95321.78;5052142;28;20303;-62
2022/09/23 10:47:15;;;;;;;1.40;1.30;;;;;;;16.97;47.66;95382.25;5049889;28;20239;-63
2022/09/23 10:50:06;;;;;;;1.92;1.80;;;;;;;17.26;49.85;95310.78;5050154;28;20565;-62
2022/09/23 10:52:38;;;;;;;2.50;2.08;;;;;;;16.94;50.15;95290.06;5050608;28;20274;-61
2022/09/23 10:55:38;;;;;;;3.45;1.70;;;;;;;16.58;48.95;95315.84;5051762;28;20218;-66
2022/09/23 10:58:16;;;;;;;2.28;2.08;;;;;;;16.70;50.34;95273.56;5047597;28;20231;-61
2022/09/23 11:00:45;;;;;;;3.40;2.30;;;;;;;16.38;51.28;95244.31;5051485;28;20639;-60
2022/09/23 11:03:42;;;;;;;2.20;2.00;;;;;;;16.35;51.10;95230.00;5051746;28;20194;-62
2022/09/23 11:06:28;;;;;;;2.72;1.90;;;;;;;17.02;49.06;95314.03;5051511;28;20555;-62
2022/09/23 11:09:23;;;;;;;1.90;1.60;;;;;;;17.04;47.70;95348.09;5033775;28;20286;-62
2022/09/23 11:11:57;;;;;;;1.95;1.77;;;;;;;16.94;48.67;95301.16;5051527;28;20186;-62
2022/09/23 11:14:29;;;;;;;2.30;2.10;;;;;;;17.06;47.85;95329.94;5051282;28;20221;-64
2022/09/23 11:17:16;;;;;;;1.90;1.70;;;;;;;17.28;48.03;95311.44;5051622;28;20209;-62
2022/09/23 11:19:45;;;;;;;3.53;1.63;;;;;;;17.11;47.72;95315.69;5051282;28;20217;-62
2022/09/23 11:22:35;;;;;;;1.77;1.67;;;;;;;17.24;47.07;95331.50;5051281;28;20176;-62
2022/09/23 11:25:17;;;;;;;1.65;1.48;;;;;;;16.28;47.07;95316.22;5051274;28;20208;-63
2022/09/23 11:27:52;;;;;;;1.20;1.13;;;;;;;16.17;48.17;95277.97;5051263;28;20201;-62
2022/09/23 11:30:19;;;;;;;1.50;1.40;;;;;;;16.71;46.52;95336.81;5051060;28;20208;-61
2022/09/23 11:33:22;;;;;;;1.80;1.70;;;;;;;16.88;42.75;95483.31;5050894;28;20293;-62
2022/09/23 11:35:52;;;;;;;1.30;0.98;;;;;;;17.25;41.44;95512.22;5051039;28;20197;-61
2022/09/23 11:38:27;;;;;;;1.23;1.13;;;;;;;17.32;41.84;95470.34;5031654;28;20197;-62
2022/09/23 11:41:01;;;;;;;1.90;1.05;;;;;;;17.51;40.96;95501.00;5035670;22;20221;-63
2022/09/23 11:43:36;;;;;;;1.00;1.00;;;;;;;17.17;40.65;95484.66;5029401;28;20272;-63
2022/09/23 11:46:13;;;;;;;2.28;1.15;;;;;;;17.26;41.16;95463.22;5030667;28;20186;-63
2022/09/23 11:48:48;;;;;;;1.30;1.20;;;;;;;17.24;41.47;95441.19;5039596;22;20267;-61
2022/09/23 11:51:30;;;;;;;0.98;0.98;;;;;;;17.21;42.58;95378.03;5050926;28;20189;-62
2022/09/23 11:54:11;;;;;;;2.42;1.02;;;;;;;17.28;42.03;95414.22;5058349;22;20292;-63
2022/09/23 11:56:42;;;;;;;1.48;1.10;;;;;;;17.49;41.48;95425.00;5030567;28;20553;-63
2022/09/23 11:59:50;;;;;;;0.95;0.95;;;;;;;17.82;40.97;95437.03;5030989;28;20210;-60
2022/09/23 12:02:32;;;;;;;1.15;1.05;;;;;;;18.09;40.85;95439.41;5022777;28;20693;-61